sensor_id;sensor_type;location;lat;lon;timestamp;P1;durP1;ratioP1;P2;durP2;ratioP2
5742;SDS011;2896;53.500;10.020;2023-02-24T00:00:13;3.57;;;1.80;;
5742;SDS011;2896;53.500;10.020;2023-02-24T00:03:00;5.93;;;2.60;;
5742;SDS011;2896;53.500;10.020;2023-02-24T00:05:31;11.37;;;2.93;;
5742;SDS011;2896;53.500;10.020;2023-02-24T00:08:00;13.20;;;2.20;;
5742;SDS011;2896;53.500;10.020;2023-02-24T00:10:27;5.50;;;1.87;;
5742;SDS011;2896;53.500;10.020;2023-02-24T00:12:54;13.73;;;2.20;;
5742;SDS011;2896;53.500;10.020;2023-02-24T00:15:20;5.40;;;1.80;;
5742;SDS011;2896;53.500;10.020;2023-02-24T00:17:47;4.90;;;1.93;;
5742;SDS011;2896;53.500;10.020;2023-02-24T00:20:13;6.37;;;2.10;;
5742;SDS011;2896;53.500;10.020;2023-02-24T00:22:43;23.07;;;2.37;;
5742;SDS011;2896;53.500;10.020;2023-02-24T00:25:11;3.83;;;1.60;;
5742;SDS011;2896;53.500;10.020;2023-02-24T00:27:38;13.40;;;2.80;;
5742;SDS011;2896;53.500;10.020;2023-02-24T00:30:05;9.23;;;2.20;;
5742;SDS011;2896;53.500;10.020;2023-02-24T00:32:35;13.37;;;2.00;;
5742;SDS011;2896;53.500;10.020;2023-02-24T00:35:02;9.27;;;1.60;;
5742;SDS011;2896;53.500;10.020;2023-02-24T00:37:29;8.77;;;2.03;;
5742;SDS011;2896;53.500;10.020;2023-02-24T00:39:56;4.67;;;1.80;;
5742;SDS011;2896;53.500;10.020;2023-02-24T00:42:24;15.70;;;2.17;;
5742;SDS011;2896;53.500;10.020;2023-02-24T00:44:50;7.27;;;1.70;;
5742;SDS011;2896;53.500;10.020;2023-02-24T00:47:19;9.23;;;2.00;;
5742;SDS011;2896;53.500;10.020;2023-02-24T00:49:46;14.60;;;2.50;;
5742;SDS011;2896;53.500;10.020;2023-02-24T00:52:15;9.03;;;2.20;;
5742;SDS011;2896;53.500;10.020;2023-02-24T00:54:43;14.07;;;2.47;;
5742;SDS011;2896;53.500;10.020;2023-02-24T00:57:11;7.73;;;2.00;;
5742;SDS011;2896;53.500;10.020;2023-02-24T00:59:39;17.97;;;2.10;;
5742;SDS011;2896;53.500;10.020;2023-02-24T01:02:11;3.53;;;1.83;;
5742;SDS011;2896;53.500;10.020;2023-02-24T01:04:38;18.00;;;3.40;;
5742;SDS011;2896;53.500;10.020;2023-02-24T01:07:05;13.80;;;1.77;;
5742;SDS011;2896;53.500;10.020;2023-02-24T01:09:34;9.60;;;2.50;;
5742;SDS011;2896;53.500;10.020;2023-02-24T01:12:02;8.43;;;2.10;;
5742;SDS011;2896;53.500;10.020;2023-02-24T01:14:49;5.80;;;1.93;;
5742;SDS011;2896;53.500;10.020;2023-02-24T01:17:17;10.83;;;2.67;;
5742;SDS011;2896;53.500;10.020;2023-02-24T01:19:45;8.00;;;2.10;;
5742;SDS011;2896;53.500;10.020;2023-02-24T01:22:14;6.60;;;1.93;;
5742;SDS011;2896;53.500;10.020;2023-02-24T01:24:42;19.43;;;2.63;;
5742;SDS011;2896;53.500;10.020;2023-02-24T01:27:10;8.53;;;1.97;;
5742;SDS011;2896;53.500;10.020;2023-02-24T01:29:38;12.07;;;2.03;;
5742;SDS011;2896;53.500;10.020;2023-02-24T01:32:06;14.27;;;2.03;;
5742;SDS011;2896;53.500;10.020;2023-02-24T01:34:36;12.93;;;2.70;;
5742;SDS011;2896;53.500;10.020;2023-02-24T01:37:06;13.23;;;2.60;;
5742;SDS011;2896;53.500;10.020;2023-02-24T01:39:32;7.47;;;2.83;;
5742;SDS011;2896;53.500;10.020;2023-02-24T01:42:00;7.70;;;1.93;;
5742;SDS011;2896;53.500;10.020;2023-02-24T01:47:28;5.80;;;2.00;;
5742;SDS011;2896;53.500;10.020;2023-02-24T01:49:55;4.63;;;1.43;;
5742;SDS011;2896;53.500;10.020;2023-02-24T01:52:22;13.13;;;2.30;;
5742;SDS011;2896;53.500;10.020;2023-02-24T01:54:52;9.40;;;2.50;;
5742;SDS011;2896;53.500;10.020;2023-02-24T01:57:22;7.60;;;2.80;;
5742;SDS011;2896;53.500;10.020;2023-02-24T01:59:51;3.60;;;1.73;;
5742;SDS011;2896;53.500;10.020;2023-02-24T02:02:21;22.60;;;2.10;;
5742;SDS011;2896;53.500;10.020;2023-02-24T02:04:50;11.17;;;1.80;;
5742;SDS011;2896;53.500;10.020;2023-02-24T02:07:21;6.17;;;1.97;;
5742;SDS011;2896;53.500;10.020;2023-02-24T02:09:50;11.10;;;2.23;;
5742;SDS011;2896;53.500;10.020;2023-02-24T02:12:18;18.03;;;2.80;;
5742;SDS011;2896;53.500;10.020;2023-02-24T02:14:45;8.37;;;1.63;;
5742;SDS011;2896;53.500;10.020;2023-02-24T02:17:16;12.23;;;2.00;;
5742;SDS011;2896;53.500;10.020;2023-02-24T02:20:19;11.57;;;1.70;;
5742;SDS011;2896;53.500;10.020;2023-02-24T02:23:25;18.37;;;3.40;;
5742;SDS011;2896;53.500;10.020;2023-02-24T02:26:25;13.40;;;2.60;;
5742;SDS011;2896;53.500;10.020;2023-02-24T02:29:22;5.13;;;2.10;;
5742;SDS011;2896;53.500;10.020;2023-02-24T02:32:04;3.53;;;1.33;;
5742;SDS011;2896;53.500;10.020;2023-02-24T02:34:46;11.53;;;2.17;;
5742;SDS011;2896;53.500;10.020;2023-02-24T02:37:19;4.93;;;1.77;;
5742;SDS011;2896;53.500;10.020;2023-02-24T02:39:56;17.57;;;2.67;;
5742;SDS011;2896;53.500;10.020;2023-02-24T02:42:34;3.13;;;2.20;;
5742;SDS011;2896;53.500;10.020;2023-02-24T02:45:07;15.47;;;3.67;;
5742;SDS011;2896;53.500;10.020;2023-02-24T02:47:38;23.73;;;3.00;;
5742;SDS011;2896;53.500;10.020;2023-02-24T02:50:14;15.60;;;2.17;;
5742;SDS011;2896;53.500;10.020;2023-02-24T02:52:46;13.33;;;2.33;;
5742;SDS011;2896;53.500;10.020;2023-02-24T02:55:20;14.80;;;2.73;;
5742;SDS011;2896;53.500;10.020;2023-02-24T02:57:52;17.87;;;2.10;;
5742;SDS011;2896;53.500;10.020;2023-02-24T03:00:22;8.00;;;1.90;;
5742;SDS011;2896;53.500;10.020;2023-02-24T03:02:54;8.50;;;1.97;;
5742;SDS011;2896;53.500;10.020;2023-02-24T03:05:29;12.43;;;2.20;;
5742;SDS011;2896;53.500;10.020;2023-02-24T03:08:01;5.53;;;1.63;;
5742;SDS011;2896;53.500;10.020;2023-02-24T03:10:35;5.20;;;1.73;;
5742;SDS011;2896;53.500;10.020;2023-02-24T03:13:05;7.03;;;1.93;;
5742;SDS011;2896;53.500;10.020;2023-02-24T03:15:37;12.60;;;2.00;;
5742;SDS011;2896;53.500;10.020;2023-02-24T03:18:11;14.10;;;1.70;;
5742;SDS011;2896;53.500;10.020;2023-02-24T03:20:44;8.27;;;2.40;;
5742;SDS011;2896;53.500;10.020;2023-02-24T03:23:16;6.50;;;2.37;;
5742;SDS011;2896;53.500;10.020;2023-02-24T03:25:47;8.67;;;2.17;;
5742;SDS011;2896;53.500;10.020;2023-02-24T03:28:26;19.80;;;2.40;;
5742;SDS011;2896;53.500;10.020;2023-02-24T03:31:01;9.90;;;2.10;;
5742;SDS011;2896;53.500;10.020;2023-02-24T03:33:35;7.20;;;2.17;;
5742;SDS011;2896;53.500;10.020;2023-02-24T03:36:07;3.57;;;1.63;;
5742;SDS011;2896;53.500;10.020;2023-02-24T03:38:38;9.40;;;1.67;;
5742;SDS011;2896;53.500;10.020;2023-02-24T03:41:07;8.03;;;1.60;;
5742;SDS011;2896;53.500;10.020;2023-02-24T03:43:36;10.33;;;2.10;;
5742;SDS011;2896;53.500;10.020;2023-02-24T03:46:08;15.50;;;1.97;;
5742;SDS011;2896;53.500;10.020;2023-02-24T03:48:37;3.17;;;1.97;;
5742;SDS011;2896;53.500;10.020;2023-02-24T03:51:10;8.03;;;2.77;;
5742;SDS011;2896;53.500;10.020;2023-02-24T03:53:43;3.83;;;1.50;;
5742;SDS011;2896;53.500;10.020;2023-02-24T03:56:24;7.03;;;1.83;;
5742;SDS011;2896;53.500;10.020;2023-02-24T03:59:01;15.20;;;1.30;;
5742;SDS011;2896;53.500;10.020;2023-02-24T04:01:40;4.43;;;1.63;;
5742;SDS011;2896;53.500;10.020;2023-02-24T04:04:15;4.80;;;2.40;;
5742;SDS011;2896;53.500;10.020;2023-02-24T04:06:53;8.63;;;2.43;;
5742;SDS011;2896;53.500;10.020;2023-02-24T04:09:25;7.57;;;2.27;;
5742;SDS011;2896;53.500;10.020;2023-02-24T04:11:58;4.00;;;1.67;;
5742;SDS011;2896;53.500;10.020;2023-02-24T04:14:34;20.43;;;3.33;;
5742;SDS011;2896;53.500;10.020;2023-02-24T04:17:07;4.47;;;1.30;;
5742;SDS011;2896;53.500;10.020;2023-02-24T04:19:43;5.87;;;2.87;;
5742;SDS011;2896;53.500;10.020;2023-02-24T04:22:15;15.90;;;2.37;;
5742;SDS011;2896;53.500;10.020;2023-02-24T04:24:49;12.03;;;2.40;;
5742;SDS011;2896;53.500;10.020;2023-02-24T04:27:17;5.40;;;1.60;;
5742;SDS011;2896;53.500;10.020;2023-02-24T04:29:45;5.87;;;1.90;;
5742;SDS011;2896;53.500;10.020;2023-02-24T04:32:17;5.03;;;1.53;;
5742;SDS011;2896;53.500;10.020;2023-02-24T04:34:48;5.20;;;1.73;;
5742;SDS011;2896;53.500;10.020;2023-02-24T04:37:17;4.80;;;2.03;;
5742;SDS011;2896;53.500;10.020;2023-02-24T04:39:46;7.50;;;2.53;;
5742;SDS011;2896;53.500;10.020;2023-02-24T04:42:14;10.73;;;1.90;;
5742;SDS011;2896;53.500;10.020;2023-02-24T04:44:43;5.27;;;1.90;;
5742;SDS011;2896;53.500;10.020;2023-02-24T04:47:10;2.67;;;1.80;;
5742;SDS011;2896;53.500;10.020;2023-02-24T04:49:37;5.10;;;1.70;;
5742;SDS011;2896;53.500;10.020;2023-02-24T04:52:05;7.53;;;2.33;;
5742;SDS011;2896;53.500;10.020;2023-02-24T04:54:34;19.40;;;2.50;;
5742;SDS011;2896;53.500;10.020;2023-02-24T04:57:01;5.37;;;2.07;;
5742;SDS011;2896;53.500;10.020;2023-02-24T04:59:30;6.13;;;1.83;;
5742;SDS011;2896;53.500;10.020;2023-02-24T05:01:56;2.73;;;1.83;;
5742;SDS011;2896;53.500;10.020;2023-02-24T05:04:25;10.50;;;2.60;;
5742;SDS011;2896;53.500;10.020;2023-02-24T05:06:55;9.70;;;2.13;;
5742;SDS011;2896;53.500;10.020;2023-02-24T05:09:22;9.00;;;2.80;;
5742;SDS011;2896;53.500;10.020;2023-02-24T05:11:55;11.47;;;2.33;;
5742;SDS011;2896;53.500;10.020;2023-02-24T05:14:24;5.73;;;2.33;;
5742;SDS011;2896;53.500;10.020;2023-02-24T05:16:50;12.27;;;2.50;;
5742;SDS011;2896;53.500;10.020;2023-02-24T05:19:23;7.87;;;2.60;;
5742;SDS011;2896;53.500;10.020;2023-02-24T05:22:08;6.10;;;2.23;;
5742;SDS011;2896;53.500;10.020;2023-02-24T05:24:38;5.60;;;2.70;;
5742;SDS011;2896;53.500;10.020;2023-02-24T05:27:06;10.53;;;2.37;;
5742;SDS011;2896;53.500;10.020;2023-02-24T05:29:34;6.10;;;1.90;;
5742;SDS011;2896;53.500;10.020;2023-02-24T05:32:02;12.37;;;1.60;;
5742;SDS011;2896;53.500;10.020;2023-02-24T05:34:29;8.10;;;2.13;;
5742;SDS011;2896;53.500;10.020;2023-02-24T05:36:57;12.90;;;2.13;;
5742;SDS011;2896;53.500;10.020;2023-02-24T05:39:25;19.00;;;2.10;;
5742;SDS011;2896;53.500;10.020;2023-02-24T05:41:53;7.63;;;2.47;;
5742;SDS011;2896;53.500;10.020;2023-02-24T05:44:23;4.40;;;2.20;;
5742;SDS011;2896;53.500;10.020;2023-02-24T05:46:52;10.17;;;2.33;;
5742;SDS011;2896;53.500;10.020;2023-02-24T05:49:23;12.80;;;2.50;;
5742;SDS011;2896;53.500;10.020;2023-02-24T05:51:53;6.50;;;1.93;;
5742;SDS011;2896;53.500;10.020;2023-02-24T05:54:24;8.43;;;2.17;;
5742;SDS011;2896;53.500;10.020;2023-02-24T05:56:53;2.33;;;1.67;;
5742;SDS011;2896;53.500;10.020;2023-02-24T05:59:23;9.10;;;2.13;;
5742;SDS011;2896;53.500;10.020;2023-02-24T06:01:49;7.70;;;3.10;;
5742;SDS011;2896;53.500;10.020;2023-02-24T06:04:17;10.30;;;2.17;;
5742;SDS011;2896;53.500;10.020;2023-02-24T06:07:03;11.93;;;2.80;;
5742;SDS011;2896;53.500;10.020;2023-02-24T06:09:30;7.53;;;3.97;;
5742;SDS011;2896;53.500;10.020;2023-02-24T06:11:58;4.97;;;2.23;;
5742;SDS011;2896;53.500;10.020;2023-02-24T06:14:27;5.60;;;2.20;;
5742;SDS011;2896;53.500;10.020;2023-02-24T06:16:54;11.80;;;2.80;;
5742;SDS011;2896;53.500;10.020;2023-02-24T06:19:21;9.23;;;2.40;;
5742;SDS011;2896;53.500;10.020;2023-02-24T06:21:50;20.00;;;2.47;;
5742;SDS011;2896;53.500;10.020;2023-02-24T06:24:17;9.67;;;2.77;;
5742;SDS011;2896;53.500;10.020;2023-02-24T06:26:44;10.77;;;2.30;;
5742;SDS011;2896;53.500;10.020;2023-02-24T06:29:13;9.23;;;1.97;;
5742;SDS011;2896;53.500;10.020;2023-02-24T06:31:43;7.43;;;2.53;;
5742;SDS011;2896;53.500;10.020;2023-02-24T06:34:12;11.97;;;2.57;;
5742;SDS011;2896;53.500;10.020;2023-02-24T06:36:39;12.10;;;2.23;;
5742;SDS011;2896;53.500;10.020;2023-02-24T06:39:07;7.10;;;2.60;;
5742;SDS011;2896;53.500;10.020;2023-02-24T06:41:37;10.97;;;2.60;;
5742;SDS011;2896;53.500;10.020;2023-02-24T06:44:04;9.17;;;2.60;;
5742;SDS011;2896;53.500;10.020;2023-02-24T06:46:30;9.17;;;2.73;;
5742;SDS011;2896;53.500;10.020;2023-02-24T06:48:58;12.60;;;3.47;;
5742;SDS011;2896;53.500;10.020;2023-02-24T06:51:25;9.43;;;1.60;;
5742;SDS011;2896;53.500;10.020;2023-02-24T06:53:54;7.80;;;2.30;;
5742;SDS011;2896;53.500;10.020;2023-02-24T06:56:22;8.83;;;2.93;;
5742;SDS011;2896;53.500;10.020;2023-02-24T06:58:50;21.63;;;3.00;;
5742;SDS011;2896;53.500;10.020;2023-02-24T07:01:20;8.20;;;3.30;;
5742;SDS011;2896;53.500;10.020;2023-02-24T07:03:49;5.30;;;2.57;;
5742;SDS011;2896;53.500;10.020;2023-02-24T07:06:43;7.43;;;3.30;;
5742;SDS011;2896;53.500;10.020;2023-02-24T07:09:12;17.70;;;4.37;;
5742;SDS011;2896;53.500;10.020;2023-02-24T07:11:41;9.40;;;2.90;;
5742;SDS011;2896;53.500;10.020;2023-02-24T07:14:10;6.37;;;2.93;;
5742;SDS011;2896;53.500;10.020;2023-02-24T07:16:37;10.80;;;3.00;;
5742;SDS011;2896;53.500;10.020;2023-02-24T07:19:09;6.97;;;3.73;;
5742;SDS011;2896;53.500;10.020;2023-02-24T07:21:38;6.80;;;3.70;;
5742;SDS011;2896;53.500;10.020;2023-02-24T07:24:09;7.57;;;4.27;;
5742;SDS011;2896;53.500;10.020;2023-02-24T07:26:37;7.47;;;3.97;;
5742;SDS011;2896;53.500;10.020;2023-02-24T07:29:05;5.77;;;4.30;;
5742;SDS011;2896;53.500;10.020;2023-02-24T07:31:32;8.53;;;4.27;;
5742;SDS011;2896;53.500;10.020;2023-02-24T07:34:00;13.93;;;4.63;;
5742;SDS011;2896;53.500;10.020;2023-02-24T07:36:28;10.93;;;4.10;;
5742;SDS011;2896;53.500;10.020;2023-02-24T07:38:56;7.33;;;4.30;;
5742;SDS011;2896;53.500;10.020;2023-02-24T07:41:25;9.37;;;4.50;;
5742;SDS011;2896;53.500;10.020;2023-02-24T07:43:52;9.53;;;4.30;;
5742;SDS011;2896;53.500;10.020;2023-02-24T07:46:21;14.10;;;4.20;;
5742;SDS011;2896;53.500;10.020;2023-02-24T07:48:49;5.37;;;3.97;;
5742;SDS011;2896;53.500;10.020;2023-02-24T07:51:19;5.53;;;4.40;;
5742;SDS011;2896;53.500;10.020;2023-02-24T07:53:47;4.73;;;3.90;;
5742;SDS011;2896;53.500;10.020;2023-02-24T07:56:17;5.27;;;3.50;;
5742;SDS011;2896;53.500;10.020;2023-02-24T07:58:46;12.30;;;4.83;;
5742;SDS011;2896;53.500;10.020;2023-02-24T08:01:15;7.77;;;4.30;;
5742;SDS011;2896;53.500;10.020;2023-02-24T08:03:46;9.20;;;4.03;;
5742;SDS011;2896;53.500;10.020;2023-02-24T08:06:14;6.97;;;4.53;;
5742;SDS011;2896;53.500;10.020;2023-02-24T08:08:50;8.80;;;4.60;;
5742;SDS011;2896;53.500;10.020;2023-02-24T08:11:24;12.67;;;4.90;;
5742;SDS011;2896;53.500;10.020;2023-02-24T08:13:52;8.50;;;5.27;;
5742;SDS011;2896;53.500;10.020;2023-02-24T08:16:21;9.37;;;6.07;;
5742;SDS011;2896;53.500;10.020;2023-02-24T08:18:48;7.80;;;5.40;;
5742;SDS011;2896;53.500;10.020;2023-02-24T08:21:15;7.90;;;6.17;;
5742;SDS011;2896;53.500;10.020;2023-02-24T08:23:44;5.83;;;5.23;;
5742;SDS011;2896;53.500;10.020;2023-02-24T08:26:12;12.07;;;7.33;;
5742;SDS011;2896;53.500;10.020;2023-02-24T08:28:39;18.13;;;7.57;;
5742;SDS011;2896;53.500;10.020;2023-02-24T08:31:07;12.33;;;7.90;;
5742;SDS011;2896;53.500;10.020;2023-02-24T08:33:36;14.93;;;7.70;;
5742;SDS011;2896;53.500;10.020;2023-02-24T08:36:03;12.13;;;8.13;;
5742;SDS011;2896;53.500;10.020;2023-02-24T08:38:31;10.30;;;8.13;;
5742;SDS011;2896;53.500;10.020;2023-02-24T08:41:10;14.67;;;7.03;;
5742;SDS011;2896;53.500;10.020;2023-02-24T08:43:42;13.73;;;7.10;;
5742;SDS011;2896;53.500;10.020;2023-02-24T08:46:14;20.87;;;7.83;;
5742;SDS011;2896;53.500;10.020;2023-02-24T08:48:43;10.23;;;4.87;;
5742;SDS011;2896;53.500;10.020;2023-02-24T08:51:12;5.70;;;5.20;;
5742;SDS011;2896;53.500;10.020;2023-02-24T08:53:41;5.33;;;4.90;;
5742;SDS011;2896;53.500;10.020;2023-02-24T08:56:11;6.70;;;4.50;;
5742;SDS011;2896;53.500;10.020;2023-02-24T08:58:47;4.40;;;4.10;;
5742;SDS011;2896;53.500;10.020;2023-02-24T09:01:23;3.57;;;3.27;;
5742;SDS011;2896;53.500;10.020;2023-02-24T09:03:52;4.53;;;4.20;;
5742;SDS011;2896;53.500;10.020;2023-02-24T09:06:21;7.87;;;4.10;;
5742;SDS011;2896;53.500;10.020;2023-02-24T09:08:51;7.23;;;4.23;;
5742;SDS011;2896;53.500;10.020;2023-02-24T09:11:33;3.83;;;3.60;;
5742;SDS011;2896;53.500;10.020;2023-02-24T09:14:00;4.90;;;4.50;;
5742;SDS011;2896;53.500;10.020;2023-02-24T09:16:30;7.40;;;4.57;;
5742;SDS011;2896;53.500;10.020;2023-02-24T09:18:56;4.43;;;4.07;;
5742;SDS011;2896;53.500;10.020;2023-02-24T09:21:37;4.23;;;3.93;;
5742;SDS011;2896;53.500;10.020;2023-02-24T09:24:23;4.40;;;3.70;;
5742;SDS011;2896;53.500;10.020;2023-02-24T09:26:51;3.83;;;3.50;;
5742;SDS011;2896;53.500;10.020;2023-02-24T09:29:22;5.57;;;4.60;;
5742;SDS011;2896;53.500;10.020;2023-02-24T09:32:00;4.47;;;4.13;;
5742;SDS011;2896;53.500;10.020;2023-02-24T09:34:31;15.70;;;4.13;;
5742;SDS011;2896;53.500;10.020;2023-02-24T09:36:58;5.33;;;3.30;;
5742;SDS011;2896;53.500;10.020;2023-02-24T09:39:29;8.23;;;4.53;;
5742;SDS011;2896;53.500;10.020;2023-02-24T09:42:18;10.20;;;4.50;;
5742;SDS011;2896;53.500;10.020;2023-02-24T09:44:59;3.63;;;3.47;;
5742;SDS011;2896;53.500;10.020;2023-02-24T09:47:29;4.10;;;3.73;;
5742;SDS011;2896;53.500;10.020;2023-02-24T09:50:23;4.10;;;3.77;;
5742;SDS011;2896;53.500;10.020;2023-02-24T09:52:55;5.60;;;4.60;;
5742;SDS011;2896;53.500;10.020;2023-02-24T09:55:39;4.47;;;4.13;;
5742;SDS011;2896;53.500;10.020;2023-02-24T09:58:25;7.80;;;4.30;;
5742;SDS011;2896;53.500;10.020;2023-02-24T10:00:57;5.47;;;4.53;;
5742;SDS011;2896;53.500;10.020;2023-02-24T10:03:46;6.10;;;4.83;;
5742;SDS011;2896;53.500;10.020;2023-02-24T10:06:26;6.13;;;5.00;;
5742;SDS011;2896;53.500;10.020;2023-02-24T10:09:00;7.93;;;4.70;;
5742;SDS011;2896;53.500;10.020;2023-02-24T10:11:36;9.33;;;4.50;;
5742;SDS011;2896;53.500;10.020;2023-02-24T10:14:05;4.97;;;4.57;;
5742;SDS011;2896;53.500;10.020;2023-02-24T10:16:43;5.00;;;4.43;;
5742;SDS011;2896;53.500;10.020;2023-02-24T10:19:25;6.97;;;4.90;;
5742;SDS011;2896;53.500;10.020;2023-02-24T10:21:55;7.50;;;5.13;;
5742;SDS011;2896;53.500;10.020;2023-02-24T10:24:28;6.23;;;4.43;;
5742;SDS011;2896;53.500;10.020;2023-02-24T10:27:02;6.63;;;4.47;;
5742;SDS011;2896;53.500;10.020;2023-02-24T10:29:41;5.43;;;4.97;;
5742;SDS011;2896;53.500;10.020;2023-02-24T10:32:20;5.70;;;5.27;;
5742;SDS011;2896;53.500;10.020;2023-02-24T10:34:59;5.47;;;5.00;;
5742;SDS011;2896;53.500;10.020;2023-02-24T10:37:26;6.13;;;5.53;;
5742;SDS011;2896;53.500;10.020;2023-02-24T10:39:54;6.00;;;5.50;;
5742;SDS011;2896;53.500;10.020;2023-02-24T10:42:22;5.57;;;5.03;;
5742;SDS011;2896;53.500;10.020;2023-02-24T10:44:51;8.47;;;4.50;;
5742;SDS011;2896;53.500;10.020;2023-02-24T10:47:35;6.13;;;5.37;;
5742;SDS011;2896;53.500;10.020;2023-02-24T10:50:18;7.27;;;6.57;;
5742;SDS011;2896;53.500;10.020;2023-02-24T10:52:47;6.10;;;5.47;;
5742;SDS011;2896;53.500;10.020;2023-02-24T10:55:36;6.30;;;5.70;;
5742;SDS011;2896;53.500;10.020;2023-02-24T10:58:19;11.00;;;6.40;;
5742;SDS011;2896;53.500;10.020;2023-02-24T11:01:04;9.47;;;7.30;;
5742;SDS011;2896;53.500;10.020;2023-02-24T11:03:45;9.10;;;6.43;;
5742;SDS011;2896;53.500;10.020;2023-02-24T11:06:27;8.63;;;6.67;;
5742;SDS011;2896;53.500;10.020;2023-02-24T11:09:15;8.43;;;7.20;;
5742;SDS011;2896;53.500;10.020;2023-02-24T11:11:57;9.30;;;7.33;;
5742;SDS011;2896;53.500;10.020;2023-02-24T11:14:46;14.97;;;7.60;;
5742;SDS011;2896;53.500;10.020;2023-02-24T11:17:33;8.23;;;7.33;;
5742;SDS011;2896;53.500;10.020;2023-02-24T11:20:03;8.67;;;6.70;;
5742;SDS011;2896;53.500;10.020;2023-02-24T11:22:36;16.30;;;7.80;;
5742;SDS011;2896;53.500;10.020;2023-02-24T11:25:06;10.43;;;7.90;;
5742;SDS011;2896;53.500;10.020;2023-02-24T11:27:48;7.43;;;6.70;;
5742;SDS011;2896;53.500;10.020;2023-02-24T11:30:16;11.20;;;7.90;;
5742;SDS011;2896;53.500;10.020;2023-02-24T11:32:52;9.80;;;7.10;;
5742;SDS011;2896;53.500;10.020;2023-02-24T11:35:28;8.17;;;7.33;;
5742;SDS011;2896;53.500;10.020;2023-02-24T11:38:04;8.80;;;7.60;;
5742;SDS011;2896;53.500;10.020;2023-02-24T11:40:42;9.13;;;6.70;;
5742;SDS011;2896;53.500;10.020;2023-02-24T11:43:24;10.47;;;6.80;;
5742;SDS011;2896;53.500;10.020;2023-02-24T11:45:55;8.80;;;6.90;;
5742;SDS011;2896;53.500;10.020;2023-02-24T11:48:28;8.80;;;7.07;;
5742;SDS011;2896;53.500;10.020;2023-02-24T11:50:58;11.13;;;8.00;;
5742;SDS011;2896;53.500;10.020;2023-02-24T11:53:34;9.53;;;7.67;;
5742;SDS011;2896;53.500;10.020;2023-02-24T11:56:07;10.23;;;7.27;;
5742;SDS011;2896;53.500;10.020;2023-02-24T11:58:39;8.73;;;7.83;;
5742;SDS011;2896;53.500;10.020;2023-02-24T12:01:11;13.20;;;9.50;;
5742;SDS011;2896;53.500;10.020;2023-02-24T12:03:43;9.93;;;8.93;;
5742;SDS011;2896;53.500;10.020;2023-02-24T12:06:18;10.73;;;8.33;;
5742;SDS011;2896;53.500;10.020;2023-02-24T12:08:52;11.03;;;9.10;;
5742;SDS011;2896;53.500;10.020;2023-02-24T12:11:26;12.03;;;8.40;;
5742;SDS011;2896;53.500;10.020;2023-02-24T12:14:03;15.30;;;8.33;;
5742;SDS011;2896;53.500;10.020;2023-02-24T12:16:40;7.63;;;6.47;;
5742;SDS011;2896;53.500;10.020;2023-02-24T12:19:13;11.83;;;7.40;;
5742;SDS011;2896;53.500;10.020;2023-02-24T12:21:44;15.20;;;6.93;;
5742;SDS011;2896;53.500;10.020;2023-02-24T12:24:17;10.73;;;6.80;;
5742;SDS011;2896;53.500;10.020;2023-02-24T12:26:48;7.63;;;6.03;;
5742;SDS011;2896;53.500;10.020;2023-02-24T12:29:36;9.90;;;5.87;;
5742;SDS011;2896;53.500;10.020;2023-02-24T12:32:13;9.30;;;5.80;;
5742;SDS011;2896;53.500;10.020;2023-02-24T12:34:49;6.33;;;5.73;;
5742;SDS011;2896;53.500;10.020;2023-02-24T12:37:28;8.27;;;6.53;;
5742;SDS011;2896;53.500;10.020;2023-02-24T12:40:08;10.63;;;7.53;;
5742;SDS011;2896;53.500;10.020;2023-02-24T12:42:48;8.60;;;6.43;;
5742;SDS011;2896;53.500;10.020;2023-02-24T12:45:25;15.60;;;6.40;;
5742;SDS011;2896;53.500;10.020;2023-02-24T12:48:04;8.17;;;6.03;;
5742;SDS011;2896;53.500;10.020;2023-02-24T12:50:43;14.10;;;6.40;;
5742;SDS011;2896;53.500;10.020;2023-02-24T12:53:16;17.80;;;6.53;;
5742;SDS011;2896;53.500;10.020;2023-02-24T12:55:51;8.30;;;6.07;;
5742;SDS011;2896;53.500;10.020;2023-02-24T12:58:29;9.93;;;5.93;;
5742;SDS011;2896;53.500;10.020;2023-02-24T13:01:02;12.07;;;6.33;;
5742;SDS011;2896;53.500;10.020;2023-02-24T13:03:57;13.23;;;6.43;;
5742;SDS011;2896;53.500;10.020;2023-02-24T13:09:19;8.70;;;6.70;;
5742;SDS011;2896;53.500;10.020;2023-02-24T13:11:55;16.63;;;6.27;;
5742;SDS011;2896;53.500;10.020;2023-02-24T13:14:27;13.57;;;5.97;;
5742;SDS011;2896;53.500;10.020;2023-02-24T13:17:04;10.23;;;6.17;;
5742;SDS011;2896;53.500;10.020;2023-02-24T13:19:45;10.47;;;6.13;;
5742;SDS011;2896;53.500;10.020;2023-02-24T13:22:18;8.70;;;5.60;;
5742;SDS011;2896;53.500;10.020;2023-02-24T13:24:54;6.60;;;5.90;;
5742;SDS011;2896;53.500;10.020;2023-02-24T13:27:25;12.70;;;6.50;;
5742;SDS011;2896;53.500;10.020;2023-02-24T13:29:53;10.50;;;5.50;;
5742;SDS011;2896;53.500;10.020;2023-02-24T13:32:23;9.20;;;5.47;;
5742;SDS011;2896;53.500;10.020;2023-02-24T13:34:53;14.40;;;6.20;;
5742;SDS011;2896;53.500;10.020;2023-02-24T13:37:27;19.43;;;6.07;;
5742;SDS011;2896;53.500;10.020;2023-02-24T13:39:55;11.83;;;5.60;;
5742;SDS011;2896;53.500;10.020;2023-02-24T13:42:23;11.27;;;5.10;;
5742;SDS011;2896;53.500;10.020;2023-02-24T13:44:53;10.27;;;4.77;;
5742;SDS011;2896;53.500;10.020;2023-02-24T13:47:33;12.27;;;5.67;;
5742;SDS011;2896;53.500;10.020;2023-02-24T13:50:24;13.00;;;5.77;;
5742;SDS011;2896;53.500;10.020;2023-02-24T13:53:00;11.10;;;5.00;;
5742;SDS011;2896;53.500;10.020;2023-02-24T13:55:49;8.63;;;5.40;;
5742;SDS011;2896;53.500;10.020;2023-02-24T13:58:42;9.13;;;4.83;;
5742;SDS011;2896;53.500;10.020;2023-02-24T14:01:19;6.10;;;4.10;;
5742;SDS011;2896;53.500;10.020;2023-02-24T14:03:49;13.10;;;4.60;;
5742;SDS011;2896;53.500;10.020;2023-02-24T14:06:30;10.40;;;4.70;;
5742;SDS011;2896;53.500;10.020;2023-02-24T14:08:58;7.93;;;4.03;;
5742;SDS011;2896;53.500;10.020;2023-02-24T14:11:27;13.73;;;3.70;;
5742;SDS011;2896;53.500;10.020;2023-02-24T14:13:57;6.10;;;2.80;;
5742;SDS011;2896;53.500;10.020;2023-02-24T14:16:25;18.77;;;3.37;;
5742;SDS011;2896;53.500;10.020;2023-02-24T14:18:55;14.33;;;3.67;;
5742;SDS011;2896;53.500;10.020;2023-02-24T14:21:26;8.53;;;2.97;;
5742;SDS011;2896;53.500;10.020;2023-02-24T14:23:55;14.03;;;2.87;;
5742;SDS011;2896;53.500;10.020;2023-02-24T14:26:22;13.53;;;3.40;;
5742;SDS011;2896;53.500;10.020;2023-02-24T14:28:52;13.03;;;2.80;;
5742;SDS011;2896;53.500;10.020;2023-02-24T14:31:23;18.17;;;2.60;;
5742;SDS011;2896;53.500;10.020;2023-02-24T14:33:55;5.43;;;2.17;;
5742;SDS011;2896;53.500;10.020;2023-02-24T14:36:26;8.93;;;2.80;;
5742;SDS011;2896;53.500;10.020;2023-02-24T14:38:59;17.63;;;3.50;;
5742;SDS011;2896;53.500;10.020;2023-02-24T14:41:27;14.67;;;4.00;;
5742;SDS011;2896;53.500;10.020;2023-02-24T14:43:54;11.70;;;3.00;;
5742;SDS011;2896;53.500;10.020;2023-02-24T14:46:22;14.60;;;3.53;;
5742;SDS011;2896;53.500;10.020;2023-02-24T14:48:53;15.40;;;3.77;;
5742;SDS011;2896;53.500;10.020;2023-02-24T14:51:21;18.90;;;3.73;;
5742;SDS011;2896;53.500;10.020;2023-02-24T14:53:54;22.03;;;3.20;;
5742;SDS011;2896;53.500;10.020;2023-02-24T14:56:24;20.43;;;3.43;;
5742;SDS011;2896;53.500;10.020;2023-02-24T14:58:56;15.63;;;3.07;;
5742;SDS011;2896;53.500;10.020;2023-02-24T15:01:29;15.07;;;2.40;;
5742;SDS011;2896;53.500;10.020;2023-02-24T15:03:59;16.63;;;3.20;;
5742;SDS011;2896;53.500;10.020;2023-02-24T15:06:35;8.80;;;3.60;;
5742;SDS011;2896;53.500;10.020;2023-02-24T15:09:05;14.40;;;3.50;;
5742;SDS011;2896;53.500;10.020;2023-02-24T15:11:39;14.47;;;3.73;;
5742;SDS011;2896;53.500;10.020;2023-02-24T15:14:06;13.43;;;3.10;;
5742;SDS011;2896;53.500;10.020;2023-02-24T15:16:46;17.33;;;2.87;;
5742;SDS011;2896;53.500;10.020;2023-02-24T15:19:22;8.73;;;2.90;;
5742;SDS011;2896;53.500;10.020;2023-02-24T15:21:52;6.43;;;2.03;;
5742;SDS011;2896;53.500;10.020;2023-02-24T15:24:20;14.20;;;3.30;;
5742;SDS011;2896;53.500;10.020;2023-02-24T15:26:51;14.47;;;2.53;;
5742;SDS011;2896;53.500;10.020;2023-02-24T15:29:20;9.13;;;2.50;;
5742;SDS011;2896;53.500;10.020;2023-02-24T15:31:52;14.57;;;2.63;;